Last 48 Hours

Top Stn/Summit - 11,053ft

15 Minute Data | America/Los_Angeles
as of 8/31/26 1:56 PM PDT
Date & Time Temp (°F) WindChill (°F) RH (%) Dew Pt (°F) Wet Bulb (°F) Wind Dir (°) Wind Spd (mph) Wind Gust (mph) Wind Gst Dir (°) Daily Min Temp (°F) Daily Max Temp (°F) Daily Max Wind (mph)
8/31/26 - 1345 49.7 42.8 52 32.8 42.2 SW | 235 16.5 28.4 SW | 229 40.2 50.3 31.5
8/31/26 - 1330 50.0 42.9 51 32.4 42.2 SW | 228 19.0 28.9 SW | 229 40.2 50.3 31.5
8/31/26 - 1315 49.9 42.7 50 31.8 42.0 SW | 224 18.5 29.6 SW | 222 40.2 50.2 31.5
8/31/26 - 1300 49.8 42.4 49 31.4 41.8 SW | 219 19.4 31.5 SW | 219 40.2 50.1 31.5
8/31/26 - 1245 49.2 42.3 50 31.2 41.4 SW | 227 16.9 25.8 SW | 221 40.2 49.7 28.9
8/31/26 - 1230 49.4 42.2 48 30.5 41.2 SW | 229 17.9 28.9 SW | 223 40.2 49.7 28.9
8/31/26 - 1215 49.3 43.0 48 30.5 41.2 SW | 228 15.5 22.2 SW | 218 40.2 49.6 22.2
8/31/26 - 1200 48.9 42.7 49 30.5 41.0 SW | 228 13.2 21.7 SW | 227 40.2 49.3 21.7
8/31/26 - 1145 48.4 42.2 48 29.4 40.4 SW | 230 12.8 20.8 SW | 220 40.2 48.8 20.8
8/31/26 - 1130 47.8 42.4 48 28.9 39.9 SW | 235 9.0 16.5 SW | 231 40.2 48.2 17.0
8/31/26 - 1115 47.7 42.8 47 28.4 39.7 SW | 228 6.1 16.6 SW | 222 40.2 48.1 17.0
8/31/26 - 1100 47.4 42.4 46 27.5 39.2 SW | 222 8.0 14.3 SW | 224 40.2 47.7 17.0
8/31/26 - 1045 47.2 42.6 46 27.6 39.1 SW | 218 7.5 11.8 SW | 219 40.2 47.4 17.0
8/31/26 - 1030 47.0 42.9 48 28.5 39.3 SW | 217 6.7 10.3 SW | 225 40.2 47.4 17.0
8/31/26 - 1015 47.0 43.5 48 28.3 39.3 SSW | 212 4.9 9.6 SW | 216 40.2 47.4 17.0
8/31/26 - 1000 47.1 44.4 43 26.0 38.6 SSW | 211 3.8 7.6 SSW | 209 40.2 47.4 17.0
8/31/26 - 0945 47.3 45.5 45 27.2 39.1 SSW | 209 3.2 5.5 SSW | 212 40.2 47.4 17.0
8/31/26 - 0930 46.6 43.8 46 27.2 38.7 SSW | 208 4.1 7.4 SSW | 209 40.2 47.3 17.0
8/31/26 - 0915 46.7 42.6 41 24.6 38.0 SSW | 213 6.5 10.2 SSW | 212 40.2 47.3 17.0
8/31/26 - 0900 46.6 41.2 38 22.3 37.2 SW | 215 9.2 14.0 SW | 217 40.2 47.3 17.0
8/31/26 - 0845 46.2 41.4 37 21.5 36.8 SSW | 209 8.3 11.4 SSW | 212 40.2 47.1 17.0
8/31/26 - 0830 46.2 41.5 33 18.7 36.1 SSW | 204 7.9 11.1 SSW | 205 40.2 47.1 17.0
8/31/26 - 0815 45.8 40.7 39 22.0 36.8 SSW | 204 8.7 12.1 SSW | 205 40.2 47.1 17.0
8/31/26 - 0800 46.7 41.3 42 25.0 38.1 SSW | 205 10.0 13.8 SSW | 203 40.2 47.1 17.0
8/31/26 - 0745 45.9 39.5 46 26.2 38.0 SSW | 203 11.7 17.0 SSW | 203 40.2 46.4 17.0
8/31/26 - 0730 44.3 37.5 52 27.6 37.6 SSW | 203 12.3 16.6 SSW | 201 40.2 46.4 16.6
8/31/26 - 0715 42.6 35.7 56 28.2 36.9 SSW | 207 11.5 15.4 SSW | 210 40.2 46.4 15.4
8/31/26 - 0700 41.5 34.6 60 28.6 36.4 SSW | 206 11.0 13.9 SSW | 205 40.2 46.4 15.4
8/31/26 - 0645 40.5 33.5 69 31.0 36.7 SSW | 207 10.4 13.7 SSW | 209 40.2 46.4 15.4
8/31/26 - 0630 40.6 33.6 71 32.0 37.1 SSW | 207 10.0 13.4 SSW | 207 40.3 46.4 15.4
8/31/26 - 0615 40.9 34.4 72 32.7 37.6 SSW | 206 9.4 12.4 SSW | 202 40.7 46.4 15.4
8/31/26 - 0600 41.2 34.9 66 30.7 37.0 SSW | 204 9.4 11.8 SSW | 199 41.0 46.4 15.4
8/31/26 - 0545 41.6 35.5 59 28.5 36.4 SSW | 202 8.6 12.0 SSW | 194 41.5 46.4 15.4
8/31/26 - 0530 41.6 36.6 61 29.3 36.7 SSW | 204 6.7 9.0 SSW | 208 41.5 46.4 15.4
8/31/26 - 0515 41.7 36.0 60 28.8 36.6 SSW | 209 7.7 11.1 SSW | 208 41.6 46.4 15.4
8/31/26 - 0500 42.0 36.1 59 28.9 36.8 SSW | 209 8.3 11.7 SSW | 209 41.8 46.4 15.4
8/31/26 - 0445 42.6 36.0 58 28.9 37.1 SSW | 210 10.2 14.2 SSW | 213 42.2 46.4 15.4
8/31/26 - 0430 42.9 36.6 55 27.7 36.9 SW | 214 10.2 13.1 SW | 214 42.3 46.4 15.4
8/31/26 - 0415 43.6 37.0 51 26.8 37.0 SW | 215 11.2 15.4 SW | 215 42.8 46.4 15.4
8/31/26 - 0400 43.2 36.9 53 27.3 36.9 SW | 214 9.6 14.6 SSW | 212 42.9 46.4 14.6
8/31/26 - 0345 43.2 37.5 55 28.1 37.2 SSW | 212 8.6 11.9 SW | 214 43.0 46.4 14.0
8/31/26 - 0330 43.4 38.3 53 27.2 37.0 SSW | 209 7.5 10.0 SSW | 209 43.0 46.4 14.0
8/31/26 - 0315 44.3 42.7 51 27.4 37.5 SSW | 206 2.4 4.7 SSW | 209 44.0 46.4 14.0
8/31/26 - 0300 44.9 - 52 28.5 38.2 S | 172 0.4 1.4 SSW | 202 44.8 46.4 14.0
8/31/26 - 0245 45.0 - 52 28.6 38.3 SSE | 158 1.0 3.6 SSE | 158 44.8 46.4 14.0
8/31/26 - 0230 45.5 42.6 51 28.6 38.6 SSE | 155 4.1 6.8 SSE | 161 45.2 46.4 14.0
8/31/26 - 0215 45.7 41.9 51 28.6 38.7 SSE | 164 6.0 8.6 S | 169 45.6 46.4 14.0
8/31/26 - 0200 45.8 40.8 50 28.4 38.7 S | 175 8.4 12.0 S | 181 45.8 46.4 14.0
8/31/26 - 0145 46.0 40.9 50 28.3 38.7 S | 176 8.3 12.5 S | 182 45.8 46.4 14.0
8/31/26 - 0130 45.9 40.6 49 28.0 38.6 S | 174 8.6 13.4 S | 176 45.8 46.4 14.0
8/31/26 - 0115 46.0 40.5 49 27.8 38.6 S | 178 9.4 14.0 S | 172 45.8 46.4 14.0
8/31/26 - 0100 46.2 41.0 48 27.8 38.7 S | 171 8.4 13.4 S | 178 37.8 52.8 36.0
8/31/26 - 0045 45.9 38.9 49 27.6 38.5 SSE | 163 12.2 21.5 S | 169 37.8 52.8 36.0
8/31/26 - 0030 45.8 39.6 48 27.3 38.3 SSE | 159 11.5 16.5 SE | 146 37.8 52.8 36.0
8/31/26 - 0015 46.4 39.7 47 27.4 38.7 S | 183 13.7 19.1 S | 179 37.8 52.8 36.0
8/31/26 - 0000 46.5 39.6 47 27.3 38.7 S | 191 14.5 19.4 S | 188 37.8 52.8 36.0
8/30/26 - 2345 46.5 39.3 47 27.2 38.6 SSW | 192 15.3 21.4 S | 187 37.8 52.8 36.0
8/30/26 - 2330 46.6 39.6 46 27.1 38.7 S | 188 14.6 21.0 S | 190 37.8 52.8 36.0
8/30/26 - 2315 45.7 38.1 51 28.3 38.6 S | 180 15.6 22.3 S | 184 37.8 52.8 36.0
8/30/26 - 2300 45.2 38.6 55 30.2 39.0 S | 173 11.8 18.2 SSE | 167 37.8 52.8 36.0
8/30/26 - 2245 45.7 39.8 57 31.3 39.6 S | 180 10.9 14.7 S | 177 37.8 52.8 36.0
8/30/26 - 2230 46.5 39.8 56 31.7 40.2 SSW | 199 13.7 18.7 SSW | 198 37.8 52.8 36.0
8/30/26 - 2215 46.6 39.9 55 31.4 40.2 SSW | 198 13.6 19.7 SSW | 200 37.8 52.8 36.0
8/30/26 - 2200 47.0 40.5 55 31.7 40.5 SSW | 200 14.0 18.9 SSW | 207 37.8 52.8 36.0
8/30/26 - 2145 47.1 40.4 54 31.4 40.4 SSW | 201 14.8 20.4 SSW | 206 37.8 52.8 36.0
8/30/26 - 2130 46.9 40.2 50 29.4 39.6 SSW | 205 14.5 19.7 SSW | 203 37.8 52.8 36.0
8/30/26 - 2115 47.0 40.2 50 29.2 39.6 SSW | 205 14.9 19.9 SSW | 204 37.8 52.8 36.0
8/30/26 - 2100 46.6 39.6 52 30.0 39.7 SSW | 203 15.2 20.4 SSW | 207 37.8 52.8 36.0
8/30/26 - 2045 45.9 39.6 35 19.4 36.2 SSW | 208 12.1 16.8 SSW | 208 37.8 52.8 36.0
8/30/26 - 2030 47.3 40.8 31 18.1 36.6 SSW | 208 13.6 19.0 SSW | 212 37.8 52.8 36.0
8/30/26 - 2015 46.8 39.9 39 22.9 37.5 SSW | 212 14.8 20.1 SSW | 213 37.8 52.8 36.0
8/30/26 - 2000 46.8 39.7 43 25.6 38.3 SSW | 213 15.5 21.2 SSW | 213 37.8 52.8 36.0
8/30/26 - 1945 46.5 39.0 47 27.5 38.8 SW | 214 17.6 23.4 SW | 215 37.8 52.8 36.0
8/30/26 - 1930 46.7 38.9 47 27.8 39.0 SW | 215 19.1 25.5 SW | 215 37.8 52.8 36.0
8/30/26 - 1915 47.0 38.7 49 28.7 39.4 SW | 214 21.6 28.1 SW | 214 37.8 52.8 36.0
8/30/26 - 1900 47.2 38.9 51 30.2 40.0 SW | 219 22.1 29.2 SW | 215 37.8 52.8 36.0
8/30/26 - 1845 48.0 40.3 51 31.0 40.7 SW | 221 19.4 27.9 SW | 233 37.8 52.8 36.0
8/30/26 - 1830 48.0 40.3 52 31.3 40.8 SW | 221 20.8 26.9 SW | 224 37.8 52.8 36.0
8/30/26 - 1815 48.8 41.2 55 33.4 42.0 SW | 223 21.2 28.7 SW | 219 37.8 52.8 36.0
8/30/26 - 1800 49.4 41.8 55 34.0 42.6 SW | 220 22.0 30.1 SW | 217 37.8 52.8 36.0
8/30/26 - 1745 50.3 - 53 33.7 42.9 SW | 224 21.7 30.2 SW | 220 37.8 52.8 36.0
8/30/26 - 1730 51.4 - 50 33.2 43.2 SW | 228 21.6 29.7 SW | 219 37.8 52.8 36.0
8/30/26 - 1715 51.6 - 47 32.2 43.0 SW | 226 20.2 29.3 SW | 228 37.8 52.8 36.0
8/30/26 - 1700 51.4 - 48 32.2 42.9 SW | 229 21.6 31.0 SW | 233 37.8 52.8 36.0
8/30/26 - 1645 52.0 - 47 32.2 43.1 SW | 226 19.3 29.6 SSW | 205 37.8 52.8 36.0
8/30/26 - 1630 51.9 - 46 32.1 43.0 SW | 234 17.3 29.8 SW | 236 37.8 52.8 36.0
8/30/26 - 1615 52.0 - 47 32.3 43.2 SW | 227 18.4 29.9 SW | 228 37.8 52.8 36.0
8/30/26 - 1600 51.9 - 48 32.7 43.3 SW | 230 17.3 27.7 SSW | 207 37.8 52.8 36.0
8/30/26 - 1545 52.4 - 46 32.4 43.4 SW | 235 16.7 31.2 SW | 233 37.8 52.8 36.0
8/30/26 - 1530 52.3 - 45 31.7 43.1 SW | 228 18.5 32.6 WSW | 239 37.8 52.8 36.0
8/30/26 - 1515 52.2 - 43 30.2 42.5 SW | 234 17.1 33.5 SW | 226 37.8 52.8 36.0
8/30/26 - 1500 52.4 - 41 29.1 42.3 SW | 229 18.2 29.5 SW | 226 37.8 52.8 36.0
8/30/26 - 1445 52.2 - 38 27.1 41.5 SW | 236 15.7 28.9 SW | 231 37.8 52.7 36.0
8/30/26 - 1430 52.4 - 36 26.2 41.3 SW | 227 15.7 26.9 SW | 222 37.8 52.7 36.0
8/30/26 - 1415 52.4 - 36 26.1 41.3 SW | 232 16.1 28.5 SW | 226 37.8 52.7 36.0
8/30/26 - 1400 52.1 - 34 24.8 40.8 SW | 236 14.1 26.4 SW | 223 37.8 52.7 36.0
8/30/26 - 1345 52.1 - 32 23.4 40.4 SW | 231 16.4 27.7 SW | 227 37.8 52.7 36.0
8/30/26 - 1330 51.8 - 30 21.7 39.8 SW | 226 16.6 25.7 SW | 228 37.8 52.1 36.0
8/30/26 - 1315 51.5 - 32 22.3 39.8 WSW | 239 13.5 23.3 SW | 226 37.8 51.8 36.0
8/30/26 - 1300 50.9 - 30 20.9 39.2 SW | 235 12.7 23.3 SW | 231 37.8 51.3 36.0
8/30/26 - 1245 50.9 - 31 21.6 39.3 WSW | 238 11.2 19.8 SW | 233 37.8 51.3 36.0
8/30/26 - 1230 50.7 - 34 23.3 39.7 SW | 233 12.8 21.7 SW | 232 37.8 51.0 36.0
8/30/26 - 1215 50.4 - 36 24.5 39.8 SW | 225 11.9 21.8 SW | 223 37.8 50.8 36.0
8/30/26 - 1200 49.7 44.5 36 24.1 39.4 SW | 231 9.8 17.9 SW | 228 37.8 50.0 36.0
8/30/26 - 1145 49.5 45.6 36 23.6 39.1 WSW | 238 6.2 12.7 SW | 227 37.8 49.7 36.0
8/30/26 - 1130 49.3 45.3 38 24.9 39.4 WSW | 240 7.4 12.0 SW | 222 37.8 49.7 36.0
8/30/26 - 1115 49.1 44.6 38 24.6 39.2 SW | 235 8.2 13.3 SW | 233 37.8 49.4 36.0
8/30/26 - 1100 48.4 43.6 38 23.7 38.6 SW | 216 8.4 14.9 SW | 222 37.8 48.9 36.0
8/30/26 - 1045 48.0 42.8 39 24.2 38.5 SSW | 213 9.5 15.4 SW | 219 37.8 48.2 36.0
8/30/26 - 1030 47.2 42.0 37 22.0 37.5 SSW | 207 8.9 14.6 SSW | 196 37.8 47.7 36.0
8/30/26 - 1015 46.4 40.2 40 23.6 37.5 SSW | 210 11.7 17.0 SSW | 207 37.8 47.6 36.0
8/30/26 - 1000 44.8 38.9 44 24.1 36.8 SW | 215 9.0 15.2 SSW | 207 37.8 45.1 36.0
8/30/26 - 0945 44.6 38.5 39 20.9 35.8 SSW | 209 10.2 14.4 SSW | 208 37.8 44.9 36.0
8/30/26 - 0930 44.5 38.5 37 19.8 35.5 SSW | 205 10.0 13.7 SSW | 205 37.8 44.8 36.0
8/30/26 - 0915 44.4 37.6 36 19.4 35.3 SSW | 210 11.2 17.5 SSW | 209 37.8 44.8 36.0
8/30/26 - 0900 43.5 35.3 36 18.4 34.6 SSW | 212 16.1 22.1 SSW | 202 37.8 44.0 36.0
8/30/26 - 0845 42.5 33.3 40 20.1 34.4 SSW | 211 19.5 24.8 SSW | 207 37.8 43.2 36.0
8/30/26 - 0830 41.8 32.1 41 19.9 34.0 SSW | 213 21.0 25.5 SW | 217 37.8 42.4 36.0
8/30/26 - 0815 40.8 31.0 49 23.1 34.3 SSW | 212 19.8 24.8 SSW | 212 37.8 42.0 36.0
8/30/26 - 0800 41.4 32.0 52 24.9 35.1 SW | 215 19.2 23.6 SSW | 212 37.8 42.0 36.0
8/30/26 - 0745 40.5 31.1 55 25.5 34.8 SW | 218 18.5 22.4 SW | 218 37.8 41.2 36.0
8/30/26 - 0730 39.5 29.7 55 24.6 34.0 SW | 219 18.8 22.7 SW | 218 37.8 39.9 36.0
8/30/26 - 0715 39.0 28.2 55 24.3 33.6 SW | 217 21.0 27.6 SW | 216 37.8 39.4 36.0
8/30/26 - 0700 38.6 27.1 56 24.4 33.3 SW | 218 23.8 29.4 SW | 221 37.8 39.4 36.0
8/30/26 - 0645 38.3 26.7 57 24.2 33.1 SW | 218 24.3 29.8 SW | 221 37.8 39.4 36.0
8/30/26 - 0630 39.0 28.3 55 24.3 33.6 SW | 214 20.6 27.7 SW | 215 37.8 39.4 36.0
8/30/26 - 0615 38.3 28.0 56 24.0 33.1 SW | 219 18.7 23.7 SW | 222 37.8 38.9 36.0
8/30/26 - 0600 38.5 27.9 56 24.0 33.2 SW | 219 20.2 24.7 SW | 216 37.8 38.9 36.0
8/30/26 - 0545 38.7 28.0 56 24.4 33.4 SW | 221 20.5 25.4 SW | 223 37.8 38.9 36.0
8/30/26 - 0530 38.6 28.0 56 24.3 33.3 SW | 224 20.9 25.3 SW | 223 37.8 38.9 36.0
8/30/26 - 0515 38.8 28.0 55 24.1 33.4 SW | 226 21.4 26.1 SW | 226 37.8 38.9 36.0
8/30/26 - 0500 38.6 27.7 56 24.4 33.3 SW | 227 21.7 26.5 SW | 230 37.8 38.7 36.0
8/30/26 - 0445 38.5 27.1 58 24.9 33.4 SW | 226 23.3 29.4 SW | 227 37.8 38.7 36.0
8/30/26 - 0430 38.2 26.4 60 25.7 33.5 SW | 226 25.3 30.4 SW | 227 37.8 38.7 36.0
8/30/26 - 0415 38.4 26.6 59 25.2 33.5 SW | 227 25.5 31.7 SW | 225 37.8 38.7 36.0
8/30/26 - 0400 38.3 26.3 60 25.7 33.6 SW | 229 26.4 32.4 SW | 227 37.8 38.7 36.0
8/30/26 - 0345 38.3 26.0 62 26.6 33.8 SW | 229 27.7 34.1 SW | 228 37.8 38.7 36.0
8/30/26 - 0330 38.2 25.6 66 27.7 34.2 SW | 228 29.6 35.8 SW | 230 37.8 38.7 36.0
8/30/26 - 0315 38.1 25.4 73 30.1 34.9 SW | 230 29.2 35.8 SW | 226 37.8 38.7 36.0
8/30/26 - 0300 38.4 25.8 73 30.6 35.3 SW | 230 29.4 36.0 SW | 228 38.0 38.7 36.0
8/30/26 - 0245 38.2 25.7 75 30.9 35.3 SW | 232 28.2 35.4 SW | 231 38.0 38.7 35.4
8/30/26 - 0230 38.2 26.4 77 31.5 35.5 SW | 230 23.9 32.1 SW | 233 38.0 38.7 32.1
8/30/26 - 0215 38.5 27.2 76 31.6 35.7 SW | 227 23.0 28.8 SW | 229 38.1 38.7 29.5
8/30/26 - 0200 38.2 26.7 80 32.5 35.9 SW | 228 23.4 29.5 SW | 225 38.1 38.7 29.5
8/30/26 - 0145 38.2 27.2 81 32.9 36.1 SW | 231 20.7 27.4 SW | 229 38.1 38.7 27.4
8/30/26 - 0130 38.3 28.1 81 33.1 36.2 SW | 232 18.7 23.0 SW | 235 38.1 38.7 26.2
8/30/26 - 0115 38.4 27.6 84 33.8 36.5 SW | 233 20.5 26.2 SW | 229 38.1 38.6 26.2
8/30/26 - 0100 38.4 27.5 82 33.5 36.4 SW | 234 21.2 27.2 WSW | 238 38.3 49.3 41.3
8/30/26 - 0045 38.6 27.4 79 32.8 36.3 SW | 234 22.6 29.1 WSW | 237 38.4 49.3 41.3
8/30/26 - 0030 39.0 27.5 73 31.2 35.9 SW | 235 24.7 30.8 WSW | 240 38.8 49.3 41.3
8/30/26 - 0015 39.2 27.4 73 31.2 36.0 SW | 234 27.3 33.5 SW | 234 38.8 49.3 41.3
8/30/26 - 0000 39.6 28.0 74 32.0 36.5 SW | 230 26.2 32.5 SW | 229 38.9 49.3 41.3
8/29/26 - 2345 39.6 28.2 77 33.1 37.0 SW | 224 24.8 32.5 SW | 228 38.9 49.3 41.3
8/29/26 - 2330 39.7 29.1 78 33.6 37.2 SW | 222 21.8 27.0 SW | 219 38.9 49.3 41.3
8/29/26 - 2315 39.6 29.0 82 34.5 37.5 SW | 217 21.7 27.2 SW | 218 38.9 49.3 41.3
8/29/26 - 2300 39.5 28.7 84 35.2 37.8 SW | 214 22.7 28.2 SW | 214 38.9 49.3 41.3
8/29/26 - 2245 39.4 28.7 87 35.8 38.0 SW | 215 21.9 27.2 SW | 214 38.9 49.3 41.3
8/29/26 - 2230 39.4 28.9 86 35.7 37.9 SW | 214 21.2 26.4 SSW | 212 38.9 49.3 41.3
8/29/26 - 2215 39.7 29.5 86 36.0 38.2 SW | 214 19.5 25.6 SW | 215 38.9 49.3 41.3
8/29/26 - 2200 39.0 29.2 92 37.0 38.3 SW | 217 17.4 23.0 SSW | 211 38.9 49.3 41.3
8/29/26 - 2145 39.7 30.6 92 37.5 38.8 SW | 224 15.2 20.0 SW | 220 39.2 49.3 41.3
8/29/26 - 2130 39.5 30.6 93 37.6 38.8 SW | 228 14.4 19.2 SW | 226 39.2 49.3 41.3
8/29/26 - 2115 39.4 30.2 93 37.6 38.7 SW | 229 15.7 20.4 SW | 227 39.2 49.3 41.3
8/29/26 - 2100 39.9 30.4 91 37.6 39.1 SW | 228 17.0 23.1 SSW | 207 39.6 49.3 41.3
8/29/26 - 2045 40.0 30.6 91 37.6 39.1 SW | 232 17.3 22.2 SW | 234 39.7 49.3 41.3
8/29/26 - 2030 40.3 30.4 89 37.4 39.1 SW | 232 18.1 25.7 SW | 228 39.8 49.3 41.3
8/29/26 - 2015 40.6 31.1 87 37.2 39.2 SW | 235 17.7 23.8 SW | 228 40.5 49.3 41.3
8/29/26 - 2000 41.2 31.2 86 37.3 39.6 SW | 233 19.7 27.6 SW | 234 40.9 49.3 41.3
8/29/26 - 1945 41.7 31.5 84 37.2 39.9 WSW | 237 21.0 30.7 WSW | 239 41.0 49.3 41.3
8/29/26 - 1930 42.4 32.5 80 36.6 39.9 SW | 232 20.4 30.4 SW | 225 41.0 49.3 41.3
8/29/26 - 1915 43.6 34.0 74 36.0 40.4 WSW | 239 18.9 33.8 SW | 228 41.0 49.3 41.3
8/29/26 - 1900 44.6 34.5 73 36.4 41.1 SW | 232 25.1 37.9 SW | 228 41.0 49.3 41.3
8/29/26 - 1845 45.6 35.8 70 36.4 41.6 SW | 230 25.4 38.1 SSW | 213 41.0 49.3 41.3
8/29/26 - 1830 46.0 36.6 67 35.5 41.4 SW | 235 23.5 36.5 SW | 233 41.0 49.3 41.3
8/29/26 - 1815 46.1 36.7 69 36.4 41.8 SW | 234 23.8 36.4 SW | 220 41.0 49.3 41.3
8/29/26 - 1800 46.6 37.3 68 36.5 42.2 SW | 235 24.8 36.6 SW | 234 41.0 49.3 41.3
8/29/26 - 1745 46.9 37.8 65 36.0 42.1 SW | 234 25.2 36.7 SW | 224 41.0 49.3 41.3
8/29/26 - 1730 46.9 37.5 68 36.8 42.5 SW | 235 26.2 39.2 SW | 219 41.0 49.3 41.3
8/29/26 - 1715 47.5 38.2 67 37.1 42.8 SW | 230 27.8 38.3 SW | 230 41.0 49.3 41.3
8/29/26 - 1700 47.6 38.5 66 36.8 42.8 SW | 234 23.6 40.2 SW | 233 41.0 49.3 41.3
8/29/26 - 1645 48.0 39.1 63 35.9 42.6 SW | 235 24.3 39.4 SW | 228 41.0 49.3 41.3
8/29/26 - 1630 48.4 39.7 65 37.1 43.3 SW | 234 24.3 38.1 WSW | 248 41.0 49.3 41.3
8/29/26 - 1615 48.4 39.6 69 38.6 44.0 SW | 233 25.7 39.7 SW | 234 41.0 49.3 41.3
8/29/26 - 1600 48.5 39.7 70 39.1 44.3 SW | 235 24.2 41.2 SW | 224 41.0 49.3 41.3
8/29/26 - 1545 48.9 40.2 70 39.7 44.8 SW | 231 26.9 39.5 SW | 232 41.0 49.3 41.3
8/29/26 - 1530 48.8 40.4 71 39.9 44.8 SW | 234 23.3 36.5 W | 264 41.0 49.2 41.3
8/29/26 - 1515 48.4 39.4 74 40.5 44.9 SW | 235 27.6 40.0 WSW | 239 41.0 49.0 41.3
8/29/26 - 1500 48.0 38.7 74 40.2 44.6 SW | 229 29.3 40.8 SW | 224 41.0 48.5 41.3
8/29/26 - 1445 47.9 38.8 74 40.1 44.5 SW | 232 27.2 39.8 SW | 229 41.0 48.4 41.3
8/29/26 - 1430 47.7 38.7 72 39.0 43.9 SW | 234 23.7 39.3 SW | 235 41.0 47.9 41.3
8/29/26 - 1415 47.0 37.6 72 38.4 43.2 SW | 232 24.5 39.7 SW | 214 41.0 47.6 41.3
8/29/26 - 1400 46.6 37.2 75 39.3 43.4 SW | 230 25.2 37.9 SW | 234 41.0 47.1 41.3
8/29/26 - 1345 45.9 35.9 85 41.6 44.2 SW | 231 27.2 40.7 SW | 216 41.0 46.7 41.3
Max 52.4 45.6 93 41.6 44.9 - 29.6 41.2 - 45.8 52.8 41.3
Avg 45.0 36.1 57 29.6 38.7 - 16.5 23.6 - - - -
Min 38.1 25.4 30 18.1 33.1 - 0.4 1.4 - 37.8 38.6 14.0